OIZH

Details ICAO OIZH (ZAH)
Name ZAHEDAN INTL
Region Iran
Timezone Asia/Tehran (UTC+3.5)
Plans Departing 45
Arriving 33
Stats Elevation 4,564 ft / 1,391 m (AMSL)
Location 29.475684° 60.906190°
Runways 2
Magnetic Variation 2.418° E
Sunrise 2017-12-12 02:42:55 UTC / 2017-12-12 06:12:55 Local
Sunset 2017-12-12 13:00:00 UTC / 2017-12-12 16:30:00 Local
Advertisement - Login to hide

Runways

ID Width Length Bearing (true) Bearing (mag) Surface Threshold Offset Overrun Length
17 148 ft / 45 m 14,040 ft / 4,280 m 172.89° 170.47° Asphalt 0 ft / 0 m 1,034 ft / 315 m
17L 98 ft / 30 m 13,995 ft / 4,266 m 172.89° 170.47° Asphalt 0 ft / 0 m 1,221 ft / 372 m
35 148 ft / 45 m 14,040 ft / 4,280 m 352.89° 350.47° Asphalt 886 ft / 270 m 1,190 ft / 363 m
35R 98 ft / 30 m 13,995 ft / 4,266 m 352.90° 350.48° Asphalt 0 ft / 0 m 1,194 ft / 364 m

Map

Weather


0- 5 10 15 20 25 30 35+ Temperature / ° C

Clouds and Precipitation
Forecast for 2017-12-12 00:00 UTC. Updated 3 minutes ago

Ground ~20,000 ft ~40,000 ft Winds

METAR

OIZH 112300Z 20006KT CAVOK M02/M22 Q1018 A3007

TAF

TAF OIZH 111730Z 1118/1224 32005MPS 8000 NSC TEMPO 1209/1218 32009MPS 4000 DU

Frequencies

Recorded 128.45 MHz ATIS
Tower 119.40 MHz TWR
Tower 121.90 MHz TWR
Tower 118.10 MHz TWR
Warning: Do not use this data for real-world aviation or navigation. No guarantee of current accuracy is given.